Time;durP1;ratioP1;P1;durP2;ratioP2;P2;SDS_P1;SDS_P2;PMS_P1;PMS_P2;Temp;Humidity;BMP_temperature;BMP_pressure;BME280_temperature;BME280_humidity;BME280_pressure;Samples;Min_cycle;Max_cycle;Signal;HPM_P1;HPM_P2
2020/12/05 00:01:12;;;;;;;50.50;21.90;;;3.70;99.90;;;;;;5083025;28;20067;-84
2020/12/05 00:03:37;;;;;;;51.75;21.42;;;3.80;99.90;;;;;;5062986;28;20035;-85
2020/12/05 00:06:03;;;;;;;47.60;23.40;;;3.70;99.90;;;;;;5092487;28;20114;-84
2020/12/05 00:08:29;;;;;;;49.30;21.20;;;3.70;99.90;;;;;;5111918;28;20034;-84
2020/12/05 00:10:54;;;;;;;48.75;22.23;;;3.70;99.90;;;;;;5085545;28;20016;-83
2020/12/05 00:13:20;;;;;;;45.05;21.55;;;3.60;99.90;;;;;;5089622;28;20028;-83
2020/12/05 00:15:45;;;;;;;58.63;21.70;;;3.50;99.90;;;;;;5070729;28;20967;-83
2020/12/05 00:18:11;;;;;;;52.55;23.17;;;3.50;99.90;;;;;;5088444;28;20477;-83
2020/12/05 00:20:37;;;;;;;46.67;21.00;;;3.50;99.90;;;;;;5104055;28;20472;-83
2020/12/05 00:23:03;;;;;;;49.78;23.15;;;3.50;99.90;;;;;;5110137;28;20106;-83
2020/12/05 00:25:29;;;;;;;53.88;22.58;;;3.40;99.90;;;;;;5107115;28;20084;-83
2020/12/05 00:27:54;;;;;;;55.63;23.63;;;3.40;99.90;;;;;;5071485;28;20032;-83
2020/12/05 00:30:20;;;;;;;45.80;21.90;;;3.30;99.90;;;;;;5068335;28;20024;-83
2020/12/05 00:32:46;;;;;;;49.30;22.42;;;3.30;99.90;;;;;;5064389;28;20028;-83
2020/12/05 00:35:11;;;;;;;46.65;22.50;;;3.30;99.90;;;;;;5082799;28;20119;-82
2020/12/05 00:37:37;;;;;;;61.05;22.80;;;3.20;99.90;;;;;;5092431;28;20126;-84
2020/12/05 00:40:04;;;;;;;50.95;20.85;;;3.20;99.90;;;;;;5058419;28;20032;-81
2020/12/05 00:42:30;;;;;;;48.17;22.05;;;3.30;99.90;;;;;;5077649;28;20020;-80
2020/12/05 00:44:56;;;;;;;48.83;23.10;;;3.20;99.90;;;;;;5089270;28;20579;-82
2020/12/05 00:47:21;;;;;;;50.75;24.00;;;3.20;99.90;;;;;;5068993;28;20036;-83
2020/12/05 00:49:47;;;;;;;52.03;23.60;;;3.20;99.90;;;;;;5093625;28;20077;-82
2020/12/05 00:52:12;;;;;;;56.28;22.73;;;3.20;99.90;;;;;;5090924;28;20060;-83
2020/12/05 00:54:38;;;;;;;54.70;24.63;;;3.10;99.90;;;;;;5071723;28;20027;-82
2020/12/05 00:57:03;;;;;;;49.42;21.70;;;3.10;99.90;;;;;;5070313;28;20062;-82
2020/12/05 00:59:29;;;;;;;49.70;22.92;;;3.10;99.90;;;;;;5069334;28;20425;-82
2020/12/05 01:01:55;;;;;;;47.35;22.77;;;3.10;99.90;;;;;;5069936;28;20428;-82
2020/12/05 01:04:21;;;;;;;51.30;23.20;;;3.10;99.90;;;;;;5069906;28;20499;-83
2020/12/05 01:06:47;;;;;;;49.92;23.65;;;3.10;99.90;;;;;;5092933;28;20403;-82
2020/12/05 01:09:14;;;;;;;49.25;22.98;;;3.10;99.90;;;;;;5085552;28;20036;-82
2020/12/05 01:11:40;;;;;;;52.25;23.75;;;3.10;99.90;;;;;;5093204;28;20020;-82
2020/12/05 01:14:05;;;;;;;50.42;22.77;;;3.10;99.90;;;;;;5093068;28;20162;-82
2020/12/05 01:16:31;;;;;;;50.92;22.67;;;3.10;99.90;;;;;;5073613;28;20045;-82
2020/12/05 01:18:59;;;;;;;44.40;22.38;;;3.10;99.90;;;;;;5075130;28;20031;-82
2020/12/05 01:21:24;;;;;;;47.65;22.55;;;3.10;99.90;;;;;;5091034;28;20106;-82
2020/12/05 01:23:50;;;;;;;54.05;25.17;;;3.10;99.90;;;;;;5081966;28;20086;-82
2020/12/05 01:26:21;;;;;;;54.75;25.73;;;3.00;99.90;;;;;;5084872;28;20028;-82
2020/12/05 01:28:47;;;;;;;52.33;25.08;;;3.00;99.90;;;;;;5087780;28;20042;-82
2020/12/05 01:31:12;;;;;;;48.70;22.15;;;2.90;99.90;;;;;;5073858;28;20036;-81
2020/12/05 01:33:39;;;;;;;55.65;24.65;;;3.00;99.90;;;;;;5072152;28;20024;-82
2020/12/05 01:36:05;;;;;;;56.40;24.27;;;3.00;99.90;;;;;;5093827;28;20500;-82
2020/12/05 01:38:31;;;;;;;54.83;24.73;;;3.00;99.90;;;;;;5092759;28;20036;-82
2020/12/05 01:41:00;;;;;;;46.10;21.92;;;2.90;99.90;;;;;;5070723;28;20035;-82
2020/12/05 01:43:27;;;;;;;61.60;26.77;;;2.90;99.90;;;;;;5074107;28;20600;-82
2020/12/05 01:45:55;;;;;;;53.15;24.63;;;2.90;99.90;;;;;;5091169;28;20028;-82
2020/12/05 01:48:21;;;;;;;50.47;23.33;;;2.90;99.90;;;;;;5090869;28;20384;-82
2020/12/05 01:50:47;;;;;;;50.85;23.02;;;2.90;99.90;;;;;;5090394;28;20023;-82
2020/12/05 01:53:17;;;;;;;50.88;23.35;;;2.90;99.90;;;;;;5113587;28;20032;-82
2020/12/05 01:55:47;;;;;;;53.42;24.70;;;2.90;99.90;;;;;;5080305;28;20034;-83
2020/12/05 01:58:14;;;;;;;46.50;21.52;;;2.80;99.90;;;;;;5092728;28;20047;-83
2020/12/05 02:00:41;;;;;;;60.03;24.92;;;2.90;99.90;;;;;;5090889;28;20172;-83
2020/12/05 02:03:07;;;;;;;58.25;24.65;;;2.90;99.90;;;;;;5090948;28;20035;-83
2020/12/05 02:05:48;;;;;;;51.72;23.52;;;2.90;99.90;;;;;;5086199;28;20380;-83
2020/12/05 02:08:18;;;;;;;51.63;23.38;;;2.90;99.90;;;;;;5074940;28;20063;-83
2020/12/05 02:10:49;;;;;;;57.13;24.73;;;2.80;99.90;;;;;;5074844;28;20059;-83
2020/12/05 02:13:27;;;;;;;52.13;22.65;;;2.80;99.90;;;;;;5073299;28;20778;-83
2020/12/05 02:15:55;;;;;;;55.85;25.65;;;2.70;99.90;;;;;;5066528;28;20110;-83
2020/12/05 02:18:21;;;;;;;57.67;25.20;;;2.70;99.90;;;;;;5072863;28;20032;-83
2020/12/05 02:20:49;;;;;;;58.65;25.73;;;2.70;99.90;;;;;;5089520;28;20030;-83
2020/12/05 02:23:16;;;;;;;61.50;27.10;;;2.70;99.90;;;;;;5094451;28;20077;-83
2020/12/05 02:25:44;;;;;;;59.42;26.98;;;2.70;99.90;;;;;;5088806;28;20040;-82
2020/12/05 02:28:10;;;;;;;56.58;25.17;;;2.70;99.90;;;;;;5071831;28;20024;-83
2020/12/05 02:30:36;;;;;;;58.17;25.20;;;2.70;99.90;;;;;;5071535;28;20472;-83
2020/12/05 02:33:05;;;;;;;54.97;26.10;;;2.80;99.90;;;;;;5071470;28;20054;-83
2020/12/05 02:35:31;;;;;;;55.30;26.42;;;2.80;99.90;;;;;;5081840;28;20020;-83
2020/12/05 02:38:08;;;;;;;65.82;28.63;;;2.80;99.90;;;;;;5073871;28;20016;-83
2020/12/05 02:40:35;;;;;;;58.83;27.42;;;2.80;99.90;;;;;;5075447;28;20041;-83
2020/12/05 02:43:01;;;;;;;59.70;26.30;;;2.80;99.90;;;;;;5073220;28;20024;-83
2020/12/05 02:45:27;;;;;;;58.85;28.05;;;2.80;99.90;;;;;;5071606;28;20481;-83
2020/12/05 02:47:52;;;;;;;61.13;28.65;;;2.70;99.90;;;;;;5061142;28;20039;-83
2020/12/05 02:50:18;;;;;;;58.40;27.77;;;2.70;99.90;;;;;;5085052;28;20062;-83
2020/12/05 02:52:44;;;;;;;59.72;27.73;;;2.60;99.90;;;;;;5094649;28;20020;-84
2020/12/05 02:55:11;;;;;;;61.05;27.92;;;2.60;99.90;;;;;;5093418;28;20104;-83
2020/12/05 02:57:36;;;;;;;57.85;28.80;;;2.70;99.90;;;;;;5073876;28;20036;-82
2020/12/05 03:00:04;;;;;;;60.80;27.88;;;2.60;99.90;;;;;;5071814;28;20027;-82
2020/12/05 03:02:29;;;;;;;48.70;22.27;;;2.70;99.90;;;;;;5068723;28;20484;-82
2020/12/05 03:04:55;;;;;;;61.22;27.10;;;2.60;99.90;;;;;;5081164;28;20049;-82
2020/12/05 03:07:20;;;;;;;63.75;29.65;;;2.60;99.90;;;;;;5111701;28;20020;-82
2020/12/05 03:09:46;;;;;;;59.13;28.25;;;2.50;99.90;;;;;;5078417;28;20047;-82
2020/12/05 03:12:12;;;;;;;55.47;24.75;;;2.50;99.90;;;;;;5080155;28;20134;-82
2020/12/05 03:14:37;;;;;;;62.58;29.40;;;2.50;99.90;;;;;;5070806;28;20059;-82
2020/12/05 03:17:03;;;;;;;65.57;30.45;;;2.40;99.90;;;;;;5069292;28;20064;-82
2020/12/05 03:19:28;;;;;;;57.72;26.45;;;2.40;99.90;;;;;;5077562;28;20020;-82
2020/12/05 03:21:54;;;;;;;61.75;29.80;;;2.50;99.90;;;;;;5079361;28;20028;-82
2020/12/05 03:24:19;;;;;;;63.63;29.95;;;2.50;99.90;;;;;;5087560;28;20044;-82
2020/12/05 03:26:45;;;;;;;71.63;30.42;;;2.50;99.90;;;;;;5077439;28;20039;-82
2020/12/05 03:29:10;;;;;;;73.03;30.70;;;2.60;99.90;;;;;;5069066;28;20029;-82
2020/12/05 03:31:52;;;;;;;67.25;30.23;;;2.50;99.90;;;;;;5070218;28;20380;-82
2020/12/05 03:34:17;;;;;;;62.13;29.73;;;2.50;99.90;;;;;;5071734;28;20480;-81
2020/12/05 03:36:44;;;;;;;60.47;29.50;;;2.50;99.90;;;;;;5059281;28;20082;-82
2020/12/05 03:39:10;;;;;;;70.47;30.65;;;2.60;99.90;;;;;;5072040;28;20461;-82
2020/12/05 03:41:36;;;;;;;58.15;29.48;;;2.60;99.90;;;;;;5071246;28;20043;-82
2020/12/05 03:44:01;;;;;;;63.53;27.80;;;2.60;99.90;;;;;;5071549;28;20047;-82
2020/12/05 03:46:27;;;;;;;68.30;32.88;;;2.60;99.90;;;;;;5069244;28;20020;-82
2020/12/05 03:48:53;;;;;;;60.15;30.27;;;2.50;99.90;;;;;;5071522;28;20028;-82
2020/12/05 03:51:18;;;;;;;68.75;32.00;;;2.50;99.90;;;;;;5109723;28;20146;-82
2020/12/05 03:53:44;;;;;;;62.67;29.73;;;2.50;99.90;;;;;;5110876;28;20027;-82
2020/12/05 03:56:09;;;;;;;66.97;31.85;;;2.60;99.90;;;;;;5073538;28;20464;-82
2020/12/05 03:58:35;;;;;;;52.28;26.73;;;2.60;99.90;;;;;;5071024;28;20481;-82
2020/12/05 04:01:01;;;;;;;66.40;30.35;;;2.50;99.90;;;;;;5069601;28;20024;-82
2020/12/05 04:03:26;;;;;;;57.38;26.42;;;2.50;99.90;;;;;;5070080;28;20345;-82
2020/12/05 04:05:52;;;;;;;65.18;32.33;;;2.40;99.90;;;;;;5087984;28;20555;-82
2020/12/05 04:08:17;;;;;;;71.45;33.90;;;2.40;99.90;;;;;;5092162;28;20372;-82
2020/12/05 04:10:43;;;;;;;61.83;31.25;;;2.40;99.90;;;;;;5085780;28;20027;-82
2020/12/05 04:13:09;;;;;;;67.43;33.35;;;2.50;99.90;;;;;;5061367;28;20020;-82
2020/12/05 04:15:34;;;;;;;72.55;33.00;;;2.60;99.90;;;;;;5069884;28;20434;-82
2020/12/05 04:18:00;;;;;;;70.55;32.67;;;2.60;99.90;;;;;;5070704;28;20528;-82
2020/12/05 04:20:26;;;;;;;64.00;31.73;;;2.60;99.90;;;;;;5084657;28;20063;-82
2020/12/05 04:22:54;;;;;;;80.05;33.03;;;2.50;99.90;;;;;;5092157;28;20092;-82
2020/12/05 04:25:22;;;;;;;65.07;31.27;;;2.50;99.90;;;;;;5075160;28;20048;-82
2020/12/05 04:27:47;;;;;;;70.97;34.17;;;2.60;99.90;;;;;;5076143;28;20024;-82
2020/12/05 04:30:13;;;;;;;62.50;32.08;;;2.60;99.90;;;;;;5060967;28;20545;-82
2020/12/05 04:32:38;;;;;;;74.68;33.78;;;2.60;99.90;;;;;;5070795;28;20024;-82
2020/12/05 04:35:04;;;;;;;68.32;34.10;;;2.60;99.90;;;;;;5080851;28;20031;-82
2020/12/05 04:37:29;;;;;;;70.13;32.92;;;2.70;99.90;;;;;;5091831;28;20499;-82
2020/12/05 04:39:55;;;;;;;67.50;34.30;;;2.70;99.90;;;;;;5075827;28;20020;-82
2020/12/05 04:42:20;;;;;;;68.65;32.58;;;2.70;99.90;;;;;;5069388;28;20605;-82
2020/12/05 04:44:46;;;;;;;59.25;30.98;;;2.70;99.90;;;;;;5068119;28;20020;-83
2020/12/05 04:47:15;;;;;;;74.55;33.13;;;2.80;99.90;;;;;;5069496;28;20032;-83
2020/12/05 04:49:41;;;;;;;69.43;32.20;;;2.80;99.90;;;;;;5083780;28;20373;-82
2020/12/05 04:52:24;;;;;;;71.82;35.28;;;2.80;99.90;;;;;;5060399;28;20028;-82
2020/12/05 04:54:56;;;;;;;65.88;33.22;;;2.80;99.90;;;;;;5072478;28;20490;-83
2020/12/05 04:57:27;;;;;;;66.53;34.67;;;2.80;99.90;;;;;;5072977;28;20100;-81
2020/12/05 04:59:53;;;;;;;;;;;2.80;99.90;;;;;;5070343;28;20089;-82
2020/12/05 05:02:26;;;;;;;70.88;33.47;;;2.70;99.90;;;;;;5062169;28;20014;-84
2020/12/05 05:04:53;;;;;;;65.22;32.85;;;2.70;99.90;;;;;;5097283;28;20020;-84
2020/12/05 05:07:22;;;;;;;73.43;34.83;;;2.70;99.90;;;;;;5091558;28;20023;-84
2020/12/05 05:09:53;;;;;;;68.47;33.47;;;2.70;99.90;;;;;;5076920;28;20023;-84
2020/12/05 05:12:26;;;;;;;68.50;31.90;;;2.60;99.90;;;;;;5074796;28;20035;-84
2020/12/05 05:14:52;;;;;;;73.53;35.40;;;2.60;99.90;;;;;;5065913;28;20087;-83
2020/12/05 05:17:17;;;;;;;71.55;35.28;;;2.50;99.90;;;;;;5068488;28;20032;-84
2020/12/05 05:19:43;;;;;;;76.60;36.92;;;2.60;99.90;;;;;;5072567;28;20395;-84
2020/12/05 05:22:10;;;;;;;73.15;35.90;;;2.60;99.90;;;;;;5071210;28;20496;-81
2020/12/05 05:24:35;;;;;;;76.00;35.45;;;2.60;99.90;;;;;;5071309;28;20061;-84
2020/12/05 05:27:02;;;;;;;75.30;38.30;;;2.50;99.90;;;;;;5079112;28;20032;-81
2020/12/05 05:29:33;;;;;;;79.70;36.42;;;2.60;99.90;;;;;;5062161;28;20115;-84
2020/12/05 05:32:12;;;;;;;81.40;39.25;;;2.50;99.90;;;;;;5072278;28;20039;-84
2020/12/05 05:34:38;;;;;;;78.05;37.38;;;2.40;99.90;;;;;;5066130;28;20028;-83
2020/12/05 05:37:34;;;;;;;80.65;39.83;;;2.40;99.90;;;;;;5068636;28;20051;-84
2020/12/05 05:40:01;;;;;;;80.78;39.17;;;2.30;99.90;;;;;;4970943;28;20129;-84
2020/12/05 05:42:27;;;;;;;84.45;38.85;;;2.30;99.90;;;;;;4983680;28;20023;-83
2020/12/05 05:44:53;;;;;;;94.25;41.10;;;2.30;99.90;;;;;;4991296;28;20108;-83
2020/12/05 05:47:20;;;;;;;87.80;39.15;;;2.20;99.90;;;;;;4968701;28;20030;-83
2020/12/05 05:49:46;;;;;;;84.30;41.38;;;2.10;99.90;;;;;;4976620;28;20117;-83
2020/12/05 05:52:17;;;;;;;82.45;39.60;;;2.10;99.90;;;;;;4990925;28;20117;-83
2020/12/05 05:54:42;;;;;;;86.72;39.85;;;2.10;99.90;;;;;;5006052;28;20034;-83
2020/12/05 05:57:11;;;;;;;80.18;38.90;;;2.20;99.90;;;;;;4998161;28;20086;-83
2020/12/05 05:59:42;;;;;;;84.60;35.70;;;2.30;99.90;;;;;;4988453;28;20038;-83
2020/12/05 06:02:17;;;;;;;94.93;42.08;;;2.20;99.90;;;;;;4971259;28;20132;-83
2020/12/05 06:04:47;;;;;;;86.75;41.20;;;2.30;99.90;;;;;;4980578;28;20022;-83
2020/12/05 06:07:17;;;;;;;89.80;39.90;;;2.30;99.90;;;;;;4994424;28;20214;-83
2020/12/05 06:09:43;;;;;;;88.65;41.20;;;2.20;99.90;;;;;;4977799;28;20031;-83
2020/12/05 06:12:11;;;;;;;87.93;41.33;;;2.20;99.90;;;;;;4971797;28;20038;-83
2020/12/05 06:14:40;;;;;;;87.20;41.13;;;2.10;99.90;;;;;;4971330;28;20035;-83
2020/12/05 06:17:07;;;;;;;85.63;41.85;;;2.10;99.90;;;;;;5058838;28;20071;-83
2020/12/05 06:19:33;;;;;;;85.53;42.65;;;2.10;99.90;;;;;;5078780;28;20038;-83
2020/12/05 06:21:59;;;;;;;91.40;42.35;;;2.10;99.90;;;;;;5112943;28;20479;-83
2020/12/05 06:25:15;;;;;;;86.32;43.00;;;2.10;99.90;;;;;;5101311;28;20036;-83
2020/12/05 06:28:00;;;;;;;83.78;40.72;;;2.20;99.90;;;;;;4971547;28;20026;-83
2020/12/05 06:30:27;;;;;;;91.75;42.33;;;2.10;99.90;;;;;;4986880;28;20034;-83
2020/12/05 06:32:55;;;;;;;96.72;44.33;;;2.10;99.90;;;;;;4971510;28;20126;-83
2020/12/05 06:35:24;;;;;;;95.30;47.42;;;2.20;99.90;;;;;;4990772;28;20034;-83
2020/12/05 06:37:52;;;;;;;88.70;41.47;;;2.10;99.90;;;;;;4990612;28;20039;-83
2020/12/05 06:40:18;;;;;;;94.32;44.40;;;2.10;99.90;;;;;;5008399;28;20476;-83
2020/12/05 06:42:45;;;;;;;93.00;43.55;;;2.10;99.90;;;;;;4973195;28;20045;-83
2020/12/05 06:45:26;;;;;;;94.47;43.67;;;2.10;99.90;;;;;;4988301;28;20035;-83
2020/12/05 06:48:14;;;;;;;98.05;42.22;;;2.10;99.90;;;;;;4981895;28;20554;-83
2020/12/05 06:50:42;;;;;;;80.63;40.03;;;2.10;99.90;;;;;;4986803;28;20018;-83
2020/12/05 06:53:20;;;;;;;98.75;42.28;;;2.20;99.90;;;;;;4993269;28;20018;-83
2020/12/05 06:55:55;;;;;;;91.75;42.65;;;2.20;99.90;;;;;;4992859;28;20129;-83
2020/12/05 06:58:28;;;;;;;90.13;42.35;;;2.20;99.90;;;;;;4980368;28;20532;-83
2020/12/05 07:00:54;;;;;;;103.07;43.25;;;2.20;99.90;;;;;;5000601;28;20036;-83
2020/12/05 07:03:28;;;;;;;102.00;46.38;;;2.30;99.90;;;;;;5063845;28;20024;-83
2020/12/05 07:05:54;;;;;;;89.93;43.97;;;2.30;99.90;;;;;;5089651;28;20087;-82
2020/12/05 07:08:35;;;;;;;98.68;45.30;;;2.30;99.90;;;;;;5093012;28;20396;-83
2020/12/05 07:11:09;;;;;;;95.38;41.42;;;2.20;99.90;;;;;;5067100;28;20061;-83
2020/12/05 07:13:44;;;;;;;101.50;44.45;;;2.20;99.90;;;;;;5072081;28;20023;-83
2020/12/05 07:16:15;;;;;;;88.00;41.92;;;2.20;99.90;;;;;;5067359;28;20389;-83
2020/12/05 07:18:46;;;;;;;94.85;42.80;;;2.00;99.90;;;;;;5074649;28;20036;-82
2020/12/05 07:21:12;;;;;;;95.63;44.40;;;2.00;99.90;;;;;;5095727;28;20027;-83
2020/12/05 07:23:38;;;;;;;92.47;46.22;;;2.00;99.90;;;;;;5111370;28;20472;-83
2020/12/05 07:26:05;;;;;;;101.63;45.83;;;2.00;99.90;;;;;;5084692;28;20045;-83
2020/12/05 07:28:31;;;;;;;91.25;45.63;;;2.00;99.90;;;;;;5086667;28;20074;-83
2020/12/05 07:30:57;;;;;;;103.55;47.55;;;1.90;99.90;;;;;;5068893;28;20031;-83
2020/12/05 07:33:23;;;;;;;101.53;49.97;;;1.90;99.90;;;;;;5066457;28;20077;-83
2020/12/05 07:36:05;;;;;;;122.22;49.55;;;1.90;99.90;;;;;;5071758;28;20393;-83
2020/12/05 07:38:37;;;;;;;105.90;46.53;;;1.90;99.90;;;;;;5052490;28;20401;-83
2020/12/05 07:41:12;;;;;;;100.72;45.80;;;2.00;99.90;;;;;;5071861;28;20027;-83
2020/12/05 07:43:38;;;;;;;99.15;47.45;;;1.90;99.90;;;;;;5071043;28;20504;-83
2020/12/05 07:46:09;;;;;;;100.57;47.65;;;2.00;99.90;;;;;;5069667;28;20077;-83
2020/12/05 07:48:35;;;;;;;104.85;47.17;;;2.00;99.90;;;;;;5071092;28;20076;-83
2020/12/05 07:51:02;;;;;;;96.22;47.55;;;2.00;99.90;;;;;;5089458;28;20459;-83
2020/12/05 07:53:34;;;;;;;104.47;47.25;;;1.90;99.90;;;;;;5080170;28;20376;-83
2020/12/05 07:56:22;;;;;;;97.00;43.60;;;1.90;99.90;;;;;;5083680;28;20554;-83
2020/12/05 07:58:53;;;;;;;104.32;46.97;;;1.90;99.90;;;;;;5065281;28;20032;-83
2020/12/05 08:01:38;;;;;;;94.30;47.10;;;1.80;99.90;;;;;;5068559;28;20036;-83
2020/12/05 08:04:36;;;;;;;100.47;46.80;;;1.80;99.90;;;;;;5071865;28;20123;-83
2020/12/05 08:07:05;;;;;;;113.38;48.75;;;1.80;99.90;;;;;;5105794;28;20046;-83
2020/12/05 08:09:38;;;;;;;110.35;50.70;;;1.90;99.90;;;;;;5085884;28;20082;-82
2020/12/05 08:12:10;;;;;;;104.50;47.67;;;1.90;99.90;;;;;;5069351;28;20106;-83
2020/12/05 08:14:37;;;;;;;93.85;46.67;;;2.00;99.90;;;;;;5070647;28;20059;-83
2020/12/05 08:17:04;;;;;;;97.47;46.65;;;2.00;99.90;;;;;;5068148;28;20476;-82
2020/12/05 08:19:31;;;;;;;103.43;48.60;;;1.90;99.90;;;;;;5086931;28;20022;-83
2020/12/05 08:22:07;;;;;;;97.70;46.80;;;2.10;99.90;;;;;;5091628;28;20548;-83
2020/12/05 08:24:33;;;;;;;105.25;49.08;;;1.90;99.90;;;;;;5082042;28;20130;-83
2020/12/05 08:26:59;;;;;;;98.95;47.85;;;1.90;99.90;;;;;;5069232;28;20443;-83
2020/12/05 08:29:25;;;;;;;98.10;48.28;;;1.90;99.90;;;;;;5085259;28;20071;-83
2020/12/05 08:31:51;;;;;;;114.65;50.55;;;1.90;99.90;;;;;;5062890;28;20027;-83
2020/12/05 08:34:28;;;;;;;113.00;50.05;;;1.90;99.90;;;;;;5071097;28;20107;-83
2020/12/05 08:36:55;;;;;;;113.15;48.47;;;2.00;99.90;;;;;;5091782;28;20220;-83
2020/12/05 08:39:21;;;;;;;120.70;51.47;;;2.00;99.90;;;;;;5074653;28;20457;-82
2020/12/05 08:41:53;;;;;;;110.00;51.33;;;1.90;99.90;;;;;;5068101;28;20040;-83
2020/12/05 08:44:21;;;;;;;100.35;49.25;;;2.00;99.90;;;;;;5087757;28;20032;-83
2020/12/05 08:46:59;;;;;;;113.95;52.05;;;2.00;99.90;;;;;;5068864;28;20020;-82
2020/12/05 08:49:24;;;;;;;113.88;50.85;;;2.00;99.90;;;;;;5079537;28;20091;-83
2020/12/05 08:51:53;;;;;;;113.35;51.95;;;2.10;99.90;;;;;;5091805;28;20122;-83
2020/12/05 08:54:19;;;;;;;108.18;48.72;;;2.10;99.90;;;;;;5060943;28;20025;-83
2020/12/05 08:56:45;;;;;;;109.78;50.88;;;2.10;99.90;;;;;;5083521;28;20029;-83
2020/12/05 08:59:12;;;;;;;99.93;48.85;;;2.10;99.90;;;;;;5089049;28;20036;-83
2020/12/05 09:01:43;;;;;;;105.43;48.45;;;2.10;99.90;;;;;;5078383;28;20092;-83
2020/12/05 09:04:12;;;;;;;106.30;49.58;;;2.20;99.90;;;;;;5089643;28;20106;-83
2020/12/05 09:06:39;;;;;;;103.70;48.92;;;2.20;99.90;;;;;;5091207;28;20023;-83
2020/12/05 09:09:08;;;;;;;111.22;48.80;;;2.20;99.90;;;;;;5091425;28;20468;-83
2020/12/05 09:11:33;;;;;;;109.78;50.22;;;2.20;99.90;;;;;;5082278;28;20070;-83
2020/12/05 09:13:59;;;;;;;109.13;49.17;;;2.20;99.90;;;;;;5094731;28;20515;-83
2020/12/05 09:16:34;;;;;;;102.65;48.78;;;2.20;99.90;;;;;;5095926;28;20032;-83
2020/12/05 09:19:00;;;;;;;104.28;47.35;;;2.30;99.90;;;;;;5064068;28;20036;-83
2020/12/05 09:21:26;;;;;;;102.57;46.45;;;2.40;99.90;;;;;;5056084;28;20092;-83
2020/12/05 09:24:02;;;;;;;107.15;48.47;;;2.40;99.90;;;;;;5105892;28;20510;-83
2020/12/05 09:26:32;;;;;;;96.15;47.58;;;2.40;99.90;;;;;;5081386;28;20085;-83
2020/12/05 09:28:58;;;;;;;105.32;48.60;;;2.50;99.90;;;;;;5067420;28;20075;-82
2020/12/05 09:31:23;;;;;;;101.85;45.83;;;2.50;99.90;;;;;;5071277;28;20061;-83
2020/12/05 09:33:49;;;;;;;104.10;47.38;;;2.60;99.90;;;;;;5085733;28;20027;-83
2020/12/05 09:36:14;;;;;;;101.20;47.30;;;2.70;99.90;;;;;;5092804;28;20024;-83
2020/12/05 09:38:40;;;;;;;103.35;48.30;;;2.70;99.90;;;;;;5113192;28;20030;-83
2020/12/05 09:41:05;;;;;;;94.18;44.78;;;2.80;99.90;;;;;;5075297;28;20055;-84
2020/12/05 09:43:31;;;;;;;87.35;41.80;;;2.90;99.90;;;;;;5080870;28;20032;-84
2020/12/05 09:45:56;;;;;;;94.20;44.17;;;2.90;99.90;;;;;;5071436;28;20043;-84
2020/12/05 09:48:22;;;;;;;90.93;45.72;;;3.10;99.90;;;;;;5064566;28;20414;-84
2020/12/05 09:50:48;;;;;;;94.45;44.20;;;3.10;99.90;;;;;;5083885;28;20020;-84
2020/12/05 09:53:14;;;;;;;85.90;42.17;;;3.20;99.90;;;;;;5075012;28;20080;-84
2020/12/05 09:55:39;;;;;;;92.90;44.45;;;3.20;99.90;;;;;;5089612;28;20387;-84
2020/12/05 09:58:05;;;;;;;98.80;43.10;;;3.20;99.90;;;;;;5090253;28;20127;-84
2020/12/05 10:00:31;;;;;;;79.35;40.15;;;3.30;99.90;;;;;;5069566;28;20023;-84
2020/12/05 10:02:57;;;;;;;86.15;40.40;;;3.20;99.90;;;;;;5072758;28;20115;-84
2020/12/05 10:05:22;;;;;;;87.63;42.25;;;3.20;99.90;;;;;;5084880;28;20226;-82
2020/12/05 10:07:48;;;;;;;102.35;49.60;;;3.30;99.90;;;;;;5094360;28;20459;-83
2020/12/05 10:10:14;;;;;;;90.85;42.05;;;3.30;99.90;;;;;;5092676;28;20032;-83
2020/12/05 10:12:44;;;;;;;83.72;41.10;;;3.40;99.90;;;;;;5089731;28;20035;-82
2020/12/05 10:15:12;;;;;;;95.47;44.15;;;3.50;99.90;;;;;;5068500;28;20031;-83
2020/12/05 10:17:38;;;;;;;99.95;43.75;;;3.50;99.90;;;;;;5066298;28;20036;-83
2020/12/05 10:20:05;;;;;;;88.55;41.70;;;3.60;99.90;;;;;;5085303;28;20395;-83
2020/12/05 10:22:30;;;;;;;85.32;41.90;;;3.60;99.90;;;;;;5074142;28;20499;-83
2020/12/05 10:24:56;;;;;;;81.05;39.30;;;3.70;99.90;;;;;;5072958;28;20052;-83
2020/12/05 10:27:22;;;;;;;94.80;42.92;;;3.80;99.90;;;;;;5076266;28;20032;-83
2020/12/05 10:29:47;;;;;;;78.57;39.83;;;3.90;99.90;;;;;;5068434;28;20043;-83
2020/12/05 10:32:13;;;;;;;84.63;40.70;;;3.90;99.90;;;;;;5091198;28;20122;-83
2020/12/05 10:34:38;;;;;;;91.32;43.30;;;3.90;99.90;;;;;;5096777;28;20467;-83
2020/12/05 10:37:04;;;;;;;85.13;40.60;;;4.00;99.90;;;;;;5092797;28;20118;-83
2020/12/05 10:39:30;;;;;;;82.93;41.58;;;4.00;99.90;;;;;;5085083;28;20383;-83
2020/12/05 10:41:55;;;;;;;100.65;48.70;;;4.10;99.90;;;;;;5075512;28;20081;-83
2020/12/05 10:44:21;;;;;;;103.22;50.92;;;4.30;99.90;;;;;;5068306;28;20502;-83
2020/12/05 10:46:49;;;;;;;109.05;55.55;;;4.50;99.90;;;;;;5088428;28;20024;-84
2020/12/05 10:49:17;;;;;;;107.90;52.95;;;4.60;99.90;;;;;;5075406;28;20032;-83
2020/12/05 10:51:44;;;;;;;97.00;46.30;;;4.70;99.90;;;;;;5062004;28;20073;-83
2020/12/05 10:54:10;;;;;;;96.00;42.25;;;4.70;99.90;;;;;;5076275;28;20031;-84
2020/12/05 10:56:38;;;;;;;82.22;40.10;;;4.90;99.90;;;;;;5074435;28;20028;-83
2020/12/05 10:59:04;;;;;;;88.18;40.67;;;5.20;99.90;;;;;;5066585;28;20036;-84
2020/12/05 11:01:29;;;;;;;79.25;36.60;;;5.20;99.90;;;;;;5087593;28;20016;-83
2020/12/05 11:03:55;;;;;;;70.38;36.08;;;5.30;99.90;;;;;;5080102;28;20107;-82
2020/12/05 11:06:26;;;;;;;68.68;36.20;;;5.30;99.90;;;;;;5092310;28;20149;-83
2020/12/05 11:08:53;;;;;;;67.07;33.10;;;5.40;99.90;;;;;;5058708;28;20037;-82
2020/12/05 11:11:19;;;;;;;70.68;33.80;;;5.60;99.90;;;;;;5077212;28;20373;-82
2020/12/05 11:13:48;;;;;;;67.70;32.55;;;5.80;99.90;;;;;;5075066;28;20020;-82
2020/12/05 11:16:21;;;;;;;69.85;31.95;;;6.00;99.90;;;;;;5088231;28;20034;-83
2020/12/05 11:18:47;;;;;;;58.85;30.15;;;6.40;99.90;;;;;;5069037;28;20032;-82
2020/12/05 11:21:14;;;;;;;63.05;28.38;;;6.80;99.90;;;;;;5072737;28;20063;-83
2020/12/05 11:23:40;;;;;;;59.65;28.40;;;7.10;99.90;;;;;;5071993;28;20484;-83
2020/12/05 11:26:07;;;;;;;56.47;28.70;;;7.10;99.90;;;;;;5071451;28;20028;-83
2020/12/05 11:28:32;;;;;;;54.78;28.90;;;7.00;99.90;;;;;;5072239;28;20028;-83
2020/12/05 11:30:58;;;;;;;53.95;28.20;;;6.80;99.90;;;;;;5083531;28;20435;-82
2020/12/05 11:33:24;;;;;;;56.83;29.00;;;6.70;99.90;;;;;;5071535;28;20068;-82
2020/12/05 11:35:51;;;;;;;59.38;28.73;;;6.90;99.90;;;;;;5090204;28;20032;-82
2020/12/05 11:38:17;;;;;;;48.75;25.83;;;7.50;99.90;;;;;;5098407;28;20088;-82
2020/12/05 11:40:42;;;;;;;53.70;26.67;;;7.80;99.90;;;;;;5108511;28;20019;-82
2020/12/05 11:43:08;;;;;;;48.72;24.00;;;8.10;99.90;;;;;;5070983;28;20020;-82
2020/12/05 11:45:33;;;;;;;41.08;22.52;;;7.90;99.90;;;;;;5068708;28;20096;-82
2020/12/05 11:47:59;;;;;;;51.08;22.25;;;8.00;99.90;;;;;;5063672;28;20070;-82
2020/12/05 11:50:24;;;;;;;50.50;25.17;;;7.90;99.90;;;;;;5095464;28;20028;-82
2020/12/05 11:52:50;;;;;;;46.30;23.38;;;8.00;99.90;;;;;;5066363;28;20133;-82
2020/12/05 11:55:16;;;;;;;40.95;24.55;;;7.80;99.90;;;;;;5084937;28;20109;-82
2020/12/05 11:57:41;;;;;;;47.90;24.92;;;7.70;99.90;;;;;;5063766;28;20538;-82
2020/12/05 12:00:07;;;;;;;47.58;23.60;;;7.30;99.90;;;;;;5066130;28;20106;-83
2020/12/05 12:02:32;;;;;;;46.85;24.38;;;7.30;99.90;;;;;;5065185;28;20123;-82
2020/12/05 12:04:58;;;;;;;49.35;24.98;;;7.20;99.90;;;;;;5039212;28;20056;-82
2020/12/05 12:07:23;;;;;;;52.90;26.33;;;7.10;99.90;;;;;;5015640;28;20029;-82
2020/12/05 12:09:49;;;;;;;48.00;26.38;;;7.10;99.90;;;;;;5058684;28;20086;-82
2020/12/05 12:12:14;;;;;;;47.85;26.35;;;7.00;99.90;;;;;;5031765;28;20033;-83
2020/12/05 12:14:40;;;;;;;49.58;26.23;;;7.00;99.90;;;;;;5045144;28;20090;-83
2020/12/05 12:17:05;;;;;;;48.13;26.83;;;6.90;99.90;;;;;;5030065;28;20037;-83
2020/12/05 12:19:31;;;;;;;54.35;30.13;;;7.10;99.90;;;;;;5044454;28;20038;-83
2020/12/05 12:21:57;;;;;;;54.58;28.48;;;7.10;99.90;;;;;;5013581;28;20558;-83
2020/12/05 12:24:23;;;;;;;52.20;29.33;;;7.10;99.90;;;;;;5042788;28;20040;-83
2020/12/05 12:26:49;;;;;;;55.40;28.35;;;7.10;99.90;;;;;;5044369;28;20116;-82
2020/12/05 12:29:15;;;;;;;58.13;32.08;;;6.90;99.90;;;;;;5042229;28;20495;-82
2020/12/05 12:31:41;;;;;;;55.92;31.20;;;7.00;99.90;;;;;;5043044;28;20056;-83
2020/12/05 12:34:07;;;;;;;61.05;33.97;;;6.90;99.90;;;;;;5046868;28;20080;-82
2020/12/05 12:36:32;;;;;;;63.53;35.45;;;6.90;99.90;;;;;;5098473;28;20372;-83
2020/12/05 12:38:58;;;;;;;62.88;35.17;;;6.80;99.90;;;;;;5083693;28;20106;-83